Time;durP1;ratioP1;P1;durP2;ratioP2;P2;SDS_P1;SDS_P2;PMS_P1;PMS_P2;Temp;Humidity;BMP_temperature;BMP_pressure;BME280_temperature;BME280_humidity;BME280_pressure;Samples;Min_cycle;Max_cycle;Signal;HPM_P1;HPM_P2
2022/04/28 00:02:19;;;;;;;13.93;10.70;;;4.10;99.90;;;;;;4999660;28;90712;-33
2022/04/28 00:04:45;;;;;;;21.65;11.70;;;4.10;99.90;;;;;;4998723;28;89092;-33
2022/04/28 00:07:11;;;;;;;15.90;11.05;;;4.10;99.90;;;;;;4999597;28;89803;-33
2022/04/28 00:09:36;;;;;;;19.65;12.02;;;4.10;99.90;;;;;;4998899;28;88939;-34
2022/04/28 00:12:03;;;;;;;16.13;11.02;;;4.10;99.90;;;;;;4998687;28;90246;-38
2022/04/28 00:14:30;;;;;;;24.98;13.07;;;4.00;99.90;;;;;;4999441;28;89739;-32
2022/04/28 00:16:55;;;;;;;19.83;12.90;;;3.90;99.90;;;;;;4998713;28;89449;-33
2022/04/28 00:19:21;;;;;;;17.73;11.43;;;3.90;99.90;;;;;;4998634;28;89662;-34
2022/04/28 00:21:47;;;;;;;16.60;13.07;;;3.90;99.90;;;;;;4998841;28;90623;-35
2022/04/28 00:24:12;;;;;;;20.45;11.68;;;3.90;99.90;;;;;;4998490;28;89653;-33
2022/04/28 00:26:38;;;;;;;17.13;12.32;;;3.80;99.90;;;;;;4999306;28;89816;-33
2022/04/28 00:29:03;;;;;;;13.13;11.10;;;3.70;99.90;;;;;;4998466;28;88700;-33
2022/04/28 00:31:29;;;;;;;19.98;11.55;;;3.70;99.90;;;;;;4999552;28;90936;-34
2022/04/28 00:33:55;;;;;;;18.27;12.50;;;3.80;99.90;;;;;;4997837;28;90214;-36
2022/04/28 00:36:21;;;;;;;20.73;12.90;;;3.80;99.90;;;;;;4998266;22;89967;-35
2022/04/28 00:38:47;;;;;;;15.80;12.00;;;3.80;99.90;;;;;;4959307;28;89106;-35
2022/04/28 00:41:13;;;;;;;18.83;12.38;;;3.90;99.90;;;;;;4958742;28;89098;-35
2022/04/28 00:43:53;;;;;;;17.95;12.50;;;3.90;99.90;;;;;;4958683;28;90546;-34
2022/04/28 00:46:20;;;;;;;17.48;11.77;;;3.80;99.90;;;;;;4958570;28;90277;-35
2022/04/28 00:51:37;;;;;;;18.38;11.98;;;3.80;99.90;;;;;;4958994;28;90287;-35
2022/04/28 00:54:04;;;;;;;16.80;12.10;;;3.80;99.90;;;;;;4959987;28;89834;-32
2022/04/28 00:56:30;;;;;;;20.15;12.55;;;3.80;99.90;;;;;;4962341;28;90201;-33
2022/04/28 00:59:02;;;;;;;17.75;12.57;;;3.80;99.90;;;;;;4962162;28;89902;-34
2022/04/28 01:01:28;;;;;;;18.30;12.75;;;3.80;99.90;;;;;;4961992;28;91906;-32
2022/04/28 01:03:53;;;;;;;15.23;12.18;;;3.80;99.90;;;;;;4962293;28;89589;-35
2022/04/28 01:06:19;;;;;;;16.77;11.43;;;3.80;99.90;;;;;;4961811;28;89803;-35
2022/04/28 01:08:46;;;;;;;18.65;13.68;;;3.80;99.90;;;;;;4961753;28;88891;-34
2022/04/28 01:11:12;;;;;;;17.15;12.95;;;3.70;99.90;;;;;;4962746;28;89517;-32
2022/04/28 01:13:37;;;;;;;16.90;11.77;;;3.80;99.90;;;;;;4962223;28;89966;-35
2022/04/28 01:16:03;;;;;;;23.70;13.50;;;3.80;99.90;;;;;;4962226;28;89094;-34
2022/04/28 01:18:29;;;;;;;18.80;13.00;;;3.80;99.90;;;;;;4962510;28;89511;-33
2022/04/28 01:21:00;;;;;;;16.73;11.80;;;3.80;99.90;;;;;;4961619;28;90316;-36
2022/04/28 01:23:27;;;;;;;21.50;13.35;;;3.80;99.90;;;;;;4961714;28;90390;-37
2022/04/28 01:25:53;;;;;;;20.80;13.70;;;3.80;99.90;;;;;;4962422;28;89616;-37
2022/04/28 01:28:18;;;;;;;20.38;12.82;;;3.80;99.90;;;;;;4962543;28;89235;-34
2022/04/28 01:30:44;;;;;;;14.90;12.02;;;3.80;99.90;;;;;;4960230;28;89947;-37
2022/04/28 01:33:09;;;;;;;19.52;12.40;;;3.80;99.90;;;;;;4961524;28;91055;-34
2022/04/28 01:35:35;;;;;;;15.52;12.52;;;3.80;99.90;;;;;;4961162;28;90934;-33
2022/04/28 01:38:00;;;;;;;16.23;12.02;;;3.80;99.90;;;;;;4962079;28;89062;-33
2022/04/28 01:40:26;;;;;;;27.58;13.13;;;3.80;99.90;;;;;;4962011;28;90155;-33
2022/04/28 01:42:52;;;;;;;16.42;11.98;;;3.60;99.90;;;;;;4962013;28;89575;-35
2022/04/28 01:45:17;;;;;;;18.92;11.90;;;2.90;99.90;;;;;;4961720;28;89593;-32
2022/04/28 01:47:43;;;;;;;17.35;12.65;;;2.70;99.90;;;;;;4961483;28;88492;-33
2022/04/28 01:50:12;;;;;;;14.18;11.68;;;2.70;99.90;;;;;;4962278;28;90385;-32
2022/04/28 01:55:23;;;;;;;21.20;13.43;;;2.80;99.90;;;;;;4961690;28;89952;-34
2022/04/28 01:57:49;;;;;;;18.08;12.00;;;3.00;99.90;;;;;;4961431;28;89155;-32
2022/04/28 02:00:16;;;;;;;18.73;13.13;;;3.10;99.90;;;;;;4961007;28;90804;-36
2022/04/28 02:02:43;;;;;;;22.55;13.80;;;3.30;99.90;;;;;;4961403;28;89818;-33
2022/04/28 02:05:09;;;;;;;19.02;12.57;;;3.30;99.90;;;;;;4960732;28;90186;-32
2022/04/28 02:07:36;;;;;;;18.60;12.75;;;3.40;99.90;;;;;;4961495;28;89344;-34
2022/04/28 02:10:04;;;;;;;16.45;12.52;;;3.40;99.90;;;;;;4943532;28;90454;-33
2022/04/28 02:12:30;;;;;;;21.63;12.43;;;3.30;99.90;;;;;;4961444;28;90733;-32
2022/04/28 02:14:55;;;;;;;20.15;11.80;;;3.30;99.90;;;;;;4961820;28;89757;-34
2022/04/28 02:17:23;;;;;;;17.40;12.90;;;3.40;99.90;;;;;;4961046;28;89642;-31
2022/04/28 02:19:49;;;;;;;16.63;13.90;;;3.40;99.90;;;;;;4950874;28;90504;-32
2022/04/28 02:22:16;;;;;;;25.52;13.50;;;3.40;99.90;;;;;;4941032;28;90756;-34
2022/04/28 02:24:41;;;;;;;19.58;12.70;;;3.40;99.90;;;;;;4940332;28;90691;-32
2022/04/28 02:27:07;;;;;;;17.38;12.05;;;3.40;99.90;;;;;;4942180;28;90702;-32
2022/04/28 02:29:34;;;;;;;20.52;13.50;;;3.40;99.90;;;;;;4941364;28;90224;-31
2022/04/28 02:31:59;;;;;;;15.02;11.52;;;3.40;99.90;;;;;;4940514;28;89824;-33
2022/04/28 02:34:25;;;;;;;17.60;11.35;;;3.50;99.90;;;;;;4941031;28;89870;-34
2022/04/28 02:36:51;;;;;;;16.92;12.23;;;3.50;99.90;;;;;;4940795;28;89748;-32
2022/04/28 02:39:17;;;;;;;23.42;14.43;;;3.60;99.90;;;;;;4941739;28;90435;-31
2022/04/28 02:41:44;;;;;;;25.48;12.48;;;3.60;99.90;;;;;;4940626;28;90707;-32
2022/04/28 02:44:12;;;;;;;21.70;13.73;;;3.50;99.90;;;;;;4940650;28;89402;-32
2022/04/28 02:46:38;;;;;;;19.15;12.32;;;3.30;99.90;;;;;;4940368;28;89496;-32
2022/04/28 02:49:04;;;;;;;19.67;14.00;;;3.00;99.90;;;;;;4941454;28;90325;-34
2022/04/28 02:51:30;;;;;;;14.90;11.95;;;2.90;99.90;;;;;;4940285;28;89956;-34
2022/04/28 02:53:55;;;;;;;23.02;13.77;;;2.90;99.90;;;;;;4940455;28;89686;-33
2022/04/28 02:56:22;;;;;;;16.88;12.82;;;2.70;99.90;;;;;;4940796;28;88562;-32
2022/04/28 02:58:49;;;;;;;17.98;13.75;;;2.70;99.90;;;;;;4939884;28;90132;-36
2022/04/28 03:01:15;;;;;;;13.13;11.82;;;2.60;99.90;;;;;;4941488;28;89255;-34
2022/04/28 03:03:40;;;;;;;18.52;13.30;;;2.70;99.90;;;;;;4940880;28;89464;-33
2022/04/28 03:11:34;;;;;;;17.73;13.20;;;3.10;99.90;;;;;;4939614;28;89912;-35
2022/04/28 03:14:01;;;;;;;20.48;12.93;;;3.20;99.90;;;;;;4941190;28;90500;-33
2022/04/28 03:16:26;;;;;;;18.27;13.18;;;3.20;99.90;;;;;;4940052;28;89598;-33
2022/04/28 03:18:52;;;;;;;17.08;11.95;;;3.40;99.90;;;;;;4940152;28;90044;-37
2022/04/28 03:21:17;;;;;;;19.65;12.23;;;3.50;99.90;;;;;;4940060;28;89620;-33
2022/04/28 03:23:43;;;;;;;15.77;11.73;;;3.60;99.90;;;;;;4940168;28;90121;-35
2022/04/28 03:26:09;;;;;;;17.80;12.15;;;3.80;99.90;;;;;;4941481;28;89466;-32
2022/04/28 03:28:35;;;;;;;17.23;12.63;;;3.80;99.90;;;;;;4939758;28;88595;-35
2022/04/28 03:31:03;;;;;;;17.13;12.40;;;3.80;99.90;;;;;;4940846;28;90142;-37
2022/04/28 03:33:29;;;;;;;22.70;14.57;;;3.60;99.90;;;;;;4940637;28;89918;-35
2022/04/28 03:35:54;;;;;;;17.77;12.38;;;3.50;99.90;;;;;;4939208;28;88398;-34
2022/04/28 03:38:20;;;;;;;17.48;12.35;;;3.50;99.90;;;;;;4940549;28;90442;-33
2022/04/28 03:40:46;;;;;;;22.00;13.65;;;3.50;99.90;;;;;;4940309;28;90180;-31
2022/04/28 03:43:12;;;;;;;18.45;12.85;;;3.60;99.90;;;;;;4940319;28;89168;-33
2022/04/28 03:45:39;;;;;;;15.80;12.50;;;3.70;99.90;;;;;;4939855;28;89357;-31
2022/04/28 03:48:09;;;;;;;23.83;13.13;;;3.80;99.90;;;;;;4922091;28;89877;-32
2022/04/28 03:50:36;;;;;;;22.05;11.85;;;3.90;99.90;;;;;;4940405;28;91147;-34
2022/04/28 03:53:02;;;;;;;19.58;12.40;;;4.00;99.90;;;;;;4940258;28;89781;-32
2022/04/28 03:55:28;;;;;;;14.43;12.20;;;4.10;99.90;;;;;;4940208;28;89110;-34
2022/04/28 03:57:53;;;;;;;21.48;13.27;;;4.20;99.90;;;;;;4939751;28;90404;-32
2022/04/28 04:00:20;;;;;;;19.58;12.25;;;4.20;99.90;;;;;;4940405;28;90604;-31
2022/04/28 04:02:47;;;;;;;13.50;12.13;;;4.30;99.90;;;;;;4939860;28;90108;-33
2022/04/28 04:05:13;;;;;;;15.38;10.88;;;4.40;99.90;;;;;;4940159;28;87534;-33
2022/04/28 04:07:39;;;;;;;17.10;11.15;;;4.50;99.90;;;;;;4940240;28;90513;-31
2022/04/28 04:10:09;;;;;;;14.10;10.95;;;4.50;99.90;;;;;;4940129;28;89631;-31
2022/04/28 04:12:34;;;;;;;12.70;11.07;;;4.50;99.90;;;;;;4939719;28;89231;-36
2022/04/28 04:15:00;;;;;;;13.85;11.68;;;4.60;99.90;;;;;;4939446;28;87991;-33
2022/04/28 04:17:26;;;;;;;17.58;11.80;;;4.60;99.90;;;;;;4940075;28;90203;-34
2022/04/28 04:19:51;;;;;;;20.95;11.10;;;4.70;99.90;;;;;;4939312;28;89436;-35
2022/04/28 04:22:17;;;;;;;19.48;11.13;;;4.70;99.90;;;;;;4939881;28;89990;-34
2022/04/28 04:24:42;;;;;;;13.02;11.10;;;4.80;99.90;;;;;;4938872;28;90777;-33
2022/04/28 04:27:15;;;;;;;14.50;11.15;;;4.80;99.90;;;;;;4939558;28;89936;-33
2022/04/28 04:29:41;;;;;;;18.88;11.00;;;4.80;99.90;;;;;;4939283;28;90213;-34
2022/04/28 04:32:20;;;;;;;15.45;11.15;;;4.80;99.90;;;;;;4939732;28;89455;-32
2022/04/28 04:34:47;;;;;;;13.32;10.30;;;4.90;99.90;;;;;;4938782;28;89440;-32
2022/04/28 04:37:13;;;;;;;17.67;11.23;;;4.90;99.90;;;;;;4939351;28;90260;-31
2022/04/28 04:39:40;;;;;;;18.30;10.70;;;5.00;99.90;;;;;;4938700;28;89257;-34
2022/04/28 04:42:07;;;;;;;18.80;11.10;;;5.00;99.90;;;;;;4939920;28;88811;-31
2022/04/28 04:44:33;;;;;;;16.23;9.73;;;5.10;99.90;;;;;;4939726;28;88548;-36
2022/04/28 04:46:58;;;;;;;12.50;10.20;;;5.10;99.90;;;;;;4939328;28;91419;-33
2022/04/28 04:49:24;;;;;;;13.68;9.63;;;5.20;99.90;;;;;;4939325;28;90669;-35
2022/04/28 04:51:50;;;;;;;17.60;10.15;;;5.20;99.90;;;;;;4939511;28;90975;-32
2022/04/28 04:54:15;;;;;;;12.48;9.98;;;5.30;99.90;;;;;;4939844;28;89832;-32
2022/04/28 04:56:41;;;;;;;12.18;9.13;;;5.20;99.90;;;;;;4939456;28;90824;-32
2022/04/28 04:59:06;;;;;;;13.10;9.23;;;5.30;99.90;;;;;;4939667;28;89378;-32
2022/04/28 05:01:32;;;;;;;16.88;8.68;;;5.30;99.90;;;;;;4939746;28;89509;-34
2022/04/28 05:03:57;;;;;;;16.02;9.65;;;5.30;99.90;;;;;;4939646;28;87711;-35
2022/04/28 05:06:23;;;;;;;12.68;9.73;;;5.40;99.90;;;;;;4940193;28;92620;-32
2022/04/28 05:08:49;;;;;;;12.52;9.18;;;5.40;99.90;;;;;;4939110;28;90386;-33
2022/04/28 05:11:14;;;;;;;21.05;8.98;;;5.50;99.90;;;;;;4939574;28;89694;-33
2022/04/28 05:13:40;;;;;;;11.68;8.93;;;5.50;99.90;;;;;;4939330;28;89228;-33
2022/04/28 05:16:06;;;;;;;13.82;9.50;;;5.60;99.90;;;;;;4923580;28;89805;-34
2022/04/28 05:18:34;;;;;;;14.45;8.85;;;5.60;99.90;;;;;;4940974;28;88974;-32
2022/04/28 05:21:00;;;;;;;13.40;8.63;;;5.70;99.90;;;;;;4939773;28;89352;-36
2022/04/28 05:23:26;;;;;;;12.27;9.05;;;5.70;99.90;;;;;;4939421;28;89291;-31
2022/04/28 05:25:51;;;;;;;12.57;8.88;;;5.70;99.90;;;;;;4939411;28;89892;-34
2022/04/28 05:28:17;;;;;;;16.13;9.15;;;5.80;99.90;;;;;;4939369;28;89903;-34
2022/04/28 05:30:42;;;;;;;15.35;9.25;;;5.80;99.90;;;;;;4939748;28;89583;-35
2022/04/28 05:33:08;;;;;;;16.65;9.30;;;5.90;99.90;;;;;;4939447;28;89402;-33
2022/04/28 05:35:37;;;;;;;12.18;8.70;;;5.90;99.90;;;;;;4936773;28;90005;-34
2022/04/28 05:38:03;;;;;;;19.30;11.30;;;6.00;99.90;;;;;;4938948;28;90823;-33
2022/04/28 05:40:28;;;;;;;16.60;11.88;;;6.10;99.90;;;;;;4940271;28;91337;-34
2022/04/28 05:45:42;;;;;;;16.70;11.40;;;6.10;99.90;;;;;;4942328;28;90246;-33
2022/04/28 05:48:09;;;;;;;18.58;10.93;;;6.10;99.90;;;;;;4942074;28;89845;-32
2022/04/28 05:50:35;;;;;;;15.07;12.07;;;6.10;99.90;;;;;;4942359;28;89343;-36
2022/04/28 05:53:01;;;;;;;14.57;12.70;;;6.10;99.90;;;;;;4941968;28;89412;-37
2022/04/28 05:55:27;;;;;;;17.30;12.73;;;6.10;99.90;;;;;;4942369;28;90240;-33
2022/04/28 05:57:53;;;;;;;18.35;12.32;;;6.20;99.90;;;;;;4941239;28;89639;-35
2022/04/28 06:00:19;;;;;;;14.10;11.68;;;6.20;99.90;;;;;;4942381;28;89264;-32
2022/04/28 06:02:44;;;;;;;15.77;12.55;;;6.30;99.90;;;;;;4941329;28;89987;-33
2022/04/28 06:05:10;;;;;;;16.75;11.13;;;6.30;99.90;;;;;;4941438;28;88867;-37
2022/04/28 06:07:35;;;;;;;13.00;11.60;;;6.40;99.90;;;;;;4941607;28;89945;-35
2022/04/28 06:10:01;;;;;;;19.83;10.23;;;6.50;99.90;;;;;;4941707;28;89168;-33
2022/04/28 06:12:27;;;;;;;10.65;8.25;;;6.50;99.90;;;;;;4941566;28;89691;-32
2022/04/28 06:14:54;;;;;;;10.00;9.00;;;6.60;99.90;;;;;;4941974;28;90183;-31
2022/04/28 06:17:20;;;;;;;17.27;10.15;;;6.60;99.90;;;;;;4924535;28;89278;-37
2022/04/28 06:19:46;;;;;;;15.40;11.38;;;6.60;99.90;;;;;;4942253;28;89611;-34
2022/04/28 06:22:12;;;;;;;16.45;12.38;;;6.70;99.90;;;;;;4940864;28;89415;-33
2022/04/28 06:24:37;;;;;;;17.58;12.95;;;6.70;99.90;;;;;;4941402;28;90201;-32
2022/04/28 06:27:04;;;;;;;27.42;12.95;;;6.70;99.90;;;;;;4940691;28;92719;-32
2022/04/28 06:29:29;;;;;;;18.70;11.57;;;6.80;99.90;;;;;;4941086;28;90837;-33
2022/04/28 06:31:55;;;;;;;15.75;10.57;;;6.90;99.90;;;;;;4941539;28;89409;-35
2022/04/28 06:34:20;;;;;;;19.67;12.02;;;6.90;99.90;;;;;;4940808;28;89928;-34
2022/04/28 06:36:46;;;;;;;18.95;10.73;;;7.00;99.90;;;;;;4940076;28;89948;-36
2022/04/28 06:39:13;;;;;;;21.90;11.82;;;7.10;99.90;;;;;;4906420;28;89852;-35
2022/04/28 06:41:39;;;;;;;16.23;11.95;;;7.20;99.90;;;;;;4939835;28;88898;-35
2022/04/28 06:44:04;;;;;;;20.80;11.73;;;7.40;99.90;;;;;;4940693;28;91787;-35
2022/04/28 06:46:31;;;;;;;10.45;9.32;;;7.50;99.90;;;;;;4939674;28;89875;-35
2022/04/28 06:48:57;;;;;;;11.93;9.80;;;7.60;99.90;;;;;;4940072;28;90025;-37
2022/04/28 06:51:23;;;;;;;14.88;9.85;;;7.70;99.90;;;;;;4922376;28;89323;-32
2022/04/28 06:53:49;;;;;;;14.88;11.00;;;7.90;99.90;;;;;;4969712;28;90431;-33
2022/04/28 06:56:14;;;;;;;15.48;8.85;;;8.00;99.90;;;;;;4977588;28;90728;-34
2022/04/28 06:58:40;;;;;;;19.23;9.63;;;8.10;99.90;;;;;;4977592;28;89116;-35
2022/04/28 07:01:06;;;;;;;19.42;10.15;;;8.30;99.90;;;;;;4978554;28;88911;-34
2022/04/28 07:03:32;;;;;;;13.10;9.43;;;8.60;99.90;;;;;;4978715;28;91390;-35
2022/04/28 07:05:58;;;;;;;11.13;9.90;;;8.70;99.90;;;;;;4979440;28;89463;-33
2022/04/28 07:08:23;;;;;;;16.02;9.13;;;8.80;99.90;;;;;;4979376;28;90016;-34
2022/04/28 07:10:49;;;;;;;13.50;9.32;;;9.00;99.90;;;;;;4978394;28;88302;-34
2022/04/28 07:13:15;;;;;;;13.80;11.07;;;9.40;99.90;;;;;;4979638;28;90938;-32
2022/04/28 07:15:43;;;;;;;16.67;10.43;;;9.90;99.90;;;;;;4959356;28;89941;-37
2022/04/28 07:18:09;;;;;;;17.52;10.35;;;10.10;99.90;;;;;;4958713;28;90694;-34
2022/04/28 07:20:35;;;;;;;27.08;9.75;;;10.20;99.90;;;;;;4958756;28;88060;-35
2022/04/28 07:23:01;;;;;;;16.35;10.20;;;10.20;99.90;;;;;;4959182;28;90292;-33
2022/04/28 07:25:28;;;;;;;15.40;9.32;;;10.20;99.90;;;;;;4931723;28;91576;-33
2022/04/28 07:27:55;;;;;;;20.55;10.55;;;10.20;99.90;;;;;;4944377;28;89553;-32
2022/04/28 07:30:21;;;;;;;15.13;9.23;;;10.20;99.90;;;;;;4950952;28;89763;-33
2022/04/28 07:32:51;;;;;;;18.08;10.30;;;10.20;99.90;;;;;;4938880;28;90903;-35
2022/04/28 07:35:20;;;;;;;16.90;10.30;;;10.50;99.90;;;;;;4901130;28;1103604;-32
2022/04/28 07:37:46;;;;;;;15.38;9.30;;;10.90;99.90;;;;;;4939206;28;90056;-32
2022/04/28 07:40:11;;;;;;;11.43;7.28;;;10.90;99.90;;;;;;4954544;28;90538;-33
2022/04/28 07:42:37;;;;;;;8.73;7.35;;;10.50;99.90;;;;;;4959014;28;90866;-32
2022/04/28 07:45:04;;;;;;;14.23;8.25;;;10.60;99.90;;;;;;4960111;28;90155;-36
2022/04/28 07:47:29;;;;;;;8.20;6.75;;;10.40;99.90;;;;;;4959816;28;90143;-32
2022/04/28 07:49:55;;;;;;;15.38;6.25;;;10.10;99.90;;;;;;4960396;28;89628;-32
2022/04/28 07:52:21;;;;;;;12.15;6.55;;;10.00;99.90;;;;;;4959474;28;90200;-36
2022/04/28 07:54:47;;;;;;;14.43;7.85;;;10.00;99.90;;;;;;4958940;28;89914;-35
2022/04/28 07:57:13;;;;;;;16.05;7.30;;;10.00;99.90;;;;;;4959901;28;90285;-34
2022/04/28 07:59:39;;;;;;;16.98;7.13;;;10.10;99.90;;;;;;4926998;28;89651;-32
2022/04/28 08:02:05;;;;;;;14.98;8.02;;;10.00;99.90;;;;;;4937883;28;90301;-32
2022/04/28 08:04:32;;;;;;;11.00;7.57;;;9.90;99.90;;;;;;4937472;28;90830;-35
2022/04/28 08:06:58;;;;;;;12.73;8.52;;;10.00;99.90;;;;;;4938163;28;90341;-34
2022/04/28 08:09:23;;;;;;;22.48;7.70;;;10.00;99.90;;;;;;4938159;28;89901;-35
2022/04/28 08:11:49;;;;;;;10.10;6.53;;;10.00;99.90;;;;;;4937848;28;89491;-33
2022/04/28 08:14:15;;;;;;;8.75;6.35;;;9.90;99.90;;;;;;4937846;28;89573;-33
2022/04/28 08:16:41;;;;;;;15.43;7.32;;;10.00;99.90;;;;;;4937791;28;89586;-34
2022/04/28 08:19:09;;;;;;;12.50;7.07;;;10.10;99.90;;;;;;4938673;28;88863;-32
2022/04/28 08:21:35;;;;;;;9.25;6.07;;;10.10;99.90;;;;;;4937374;28;90366;-35
2022/04/28 08:24:00;;;;;;;14.68;5.50;;;10.00;99.90;;;;;;4937862;28;89988;-35
2022/04/28 08:26:26;;;;;;;12.55;6.50;;;10.20;99.90;;;;;;4937723;28;89875;-33
2022/04/28 08:28:51;;;;;;;9.25;5.40;;;10.40;99.90;;;;;;4936914;28;89236;-33
2022/04/28 08:31:17;;;;;;;8.10;6.10;;;10.40;99.90;;;;;;4938232;28;90164;-34
2022/04/28 08:33:43;;;;;;;11.30;5.10;;;10.40;99.90;;;;;;4937059;28;89669;-31
2022/04/28 08:36:08;;;;;;;10.40;4.97;;;10.60;99.90;;;;;;4938102;28;89856;-35
2022/04/28 08:38:34;;;;;;;13.85;6.30;;;10.60;99.90;;;;;;4937530;28;88975;-31
2022/04/28 08:41:03;;;;;;;9.88;5.88;;;10.60;99.90;;;;;;4937308;28;90852;-38
2022/04/28 08:43:30;;;;;;;8.00;5.55;;;10.50;99.90;;;;;;4937783;28;89914;-34
2022/04/28 08:48:53;;;;;;;7.97;5.65;;;10.50;99.90;;;;;;4936766;28;87767;-34
2022/04/28 08:51:20;;;;;;;6.85;4.78;;;10.40;99.90;;;;;;4937219;28;90343;-32
2022/04/28 08:53:48;;;;;;;10.52;4.43;;;10.60;99.90;;;;;;4937323;28;90524;-32
2022/04/28 08:56:18;;;;;;;14.13;5.22;;;10.80;99.90;;;;;;4937586;28;90535;-34
2022/04/28 08:58:44;;;;;;;8.48;4.78;;;10.70;99.90;;;;;;4937238;28;89560;-36
2022/04/28 09:01:10;;;;;;;15.00;4.45;;;10.90;99.90;;;;;;4937044;28;88840;-35
2022/04/28 09:03:36;;;;;;;15.43;6.65;;;11.00;99.90;;;;;;4937245;28;89614;-34
2022/04/28 09:06:17;;;;;;;8.07;4.38;;;11.20;99.90;;;;;;4938047;28;89717;-36
2022/04/28 09:08:44;;;;;;;6.18;3.97;;;11.30;99.90;;;;;;4937419;28;88915;-32
2022/04/28 09:11:18;;;;;;;11.57;4.63;;;11.20;99.90;;;;;;4937535;28;90213;-33
2022/04/28 09:16:32;;;;;;;10.43;4.45;;;11.20;99.90;;;;;;4939766;28;89284;-37
2022/04/28 09:18:58;;;;;;;6.50;4.57;;;11.10;99.90;;;;;;4940485;28;89559;-32
2022/04/28 09:21:24;;;;;;;24.70;8.20;;;11.00;99.90;;;;;;4939753;28;89659;-33
2022/04/28 09:23:51;;;;;;;41.65;13.45;;;11.10;99.90;;;;;;4922007;28;90094;-34
2022/04/28 09:26:17;;;;;;;28.15;9.85;;;11.00;99.90;;;;;;4940420;28;89528;-32
2022/04/28 09:28:43;;;;;;;15.18;5.70;;;11.20;99.90;;;;;;4939911;28;90462;-33
2022/04/28 09:31:09;;;;;;;10.70;5.15;;;11.20;99.90;;;;;;4940663;28;90658;-33
2022/04/28 09:33:36;;;;;;;17.48;5.45;;;11.30;99.90;;;;;;4939911;28;91185;-35
2022/04/28 09:36:03;;;;;;;8.80;4.88;;;11.40;99.90;;;;;;4939904;28;89133;-34
2022/04/28 09:38:29;;;;;;;12.35;4.72;;;11.40;99.90;;;;;;4940415;28;89431;-33
2022/04/28 09:43:39;;;;;;;5.40;4.50;;;11.50;99.90;;;;;;4921254;28;90459;-38
2022/04/28 09:46:07;;;;;;;7.53;4.95;;;11.60;99.90;;;;;;4922898;28;90207;-31
2022/04/28 09:48:33;;;;;;;8.43;4.70;;;11.50;99.90;;;;;;4922605;28;88378;-33
2022/04/28 09:51:00;;;;;;;8.48;4.72;;;11.60;99.90;;;;;;4922486;28;90335;-34
2022/04/28 09:53:29;;;;;;;11.57;5.25;;;11.50;99.90;;;;;;4923093;28;89264;-32
2022/04/28 09:55:56;;;;;;;13.38;5.38;;;11.90;99.90;;;;;;4922330;28;88322;-34
2022/04/28 09:58:23;;;;;;;9.63;6.30;;;11.90;99.90;;;;;;4922550;28;88142;-32
2022/04/28 10:00:49;;;;;;;6.93;4.75;;;12.00;99.90;;;;;;4921657;28;90266;-34
2022/04/28 10:03:15;;;;;;;6.32;4.72;;;12.00;99.90;;;;;;4923373;28;89898;-34
2022/04/28 10:05:41;;;;;;;11.13;5.60;;;12.00;99.90;;;;;;4922156;28;89793;-33
2022/04/28 10:08:08;;;;;;;9.32;5.93;;;11.90;99.90;;;;;;4921608;28;90041;-33
2022/04/28 10:10:35;;;;;;;12.13;5.80;;;11.80;99.90;;;;;;4922699;28;91634;-37
2022/04/28 10:13:00;;;;;;;12.93;5.43;;;11.80;99.90;;;;;;4922023;28;91457;-41
2022/04/28 10:15:28;;;;;;;9.63;5.32;;;12.10;99.90;;;;;;4922676;28;90456;-33
2022/04/28 10:18:16;;;;;;;9.10;4.83;;;12.50;99.90;;;;;;4922633;28;89481;-33
2022/04/28 10:20:45;;;;;;;14.02;5.57;;;12.50;99.90;;;;;;4921965;28;90281;-35
2022/04/28 10:23:14;;;;;;;12.10;5.97;;;12.60;99.90;;;;;;4922490;28;90180;-32
2022/04/28 10:34:11;;;;;;;13.85;6.68;;;12.60;99.90;;;;;;4921412;28;90374;-34
2022/04/28 10:36:59;;;;;;;9.43;5.82;;;12.30;99.90;;;;;;4927616;28;90876;-34
2022/04/28 10:39:39;;;;;;;10.38;5.72;;;12.20;99.90;;;;;;4959446;28;89276;-35
2022/04/28 10:42:23;;;;;;;9.52;6.03;;;12.40;99.90;;;;;;4959826;28;90497;-33
2022/04/28 10:44:54;;;;;;;8.73;5.53;;;12.40;99.90;;;;;;4958255;28;89554;-33
2022/04/28 10:47:35;;;;;;;10.77;5.57;;;12.40;99.90;;;;;;4958886;28;89587;-34
2022/04/28 10:50:02;;;;;;;8.40;5.80;;;12.20;99.90;;;;;;4959183;28;89410;-35
2022/04/28 10:52:29;;;;;;;13.65;5.68;;;12.30;99.90;;;;;;4959558;28;88921;-32
2022/04/28 10:55:02;;;;;;;8.02;6.00;;;12.50;99.90;;;;;;4958521;28;89542;-36
2022/04/28 10:57:36;;;;;;;14.25;6.47;;;12.50;99.90;;;;;;4959056;28;89857;-34
2022/04/28 11:00:03;;;;;;;13.38;6.43;;;12.50;99.90;;;;;;4958438;28;88836;-34
2022/04/28 11:02:34;;;;;;;11.67;6.37;;;13.00;99.90;;;;;;4959456;28;91285;-33
2022/04/28 11:05:03;;;;;;;9.95;6.03;;;12.90;99.90;;;;;;4958611;28;90098;-36
2022/04/28 11:07:30;;;;;;;15.77;6.75;;;12.90;99.90;;;;;;4958136;28;89811;-35
2022/04/28 11:10:07;;;;;;;12.00;6.25;;;12.90;99.90;;;;;;4958684;28;88169;-34
2022/04/28 11:12:37;;;;;;;15.07;6.95;;;12.90;99.90;;;;;;4958680;28;90620;-34
2022/04/28 11:15:06;;;;;;;13.30;6.68;;;12.90;99.90;;;;;;4958829;28;89577;-37
2022/04/28 11:17:35;;;;;;;9.52;6.05;;;12.80;99.90;;;;;;4958489;28;90898;-32
2022/04/28 11:20:13;;;;;;;7.70;6.05;;;12.90;99.90;;;;;;4957988;28;88632;-34
2022/04/28 11:22:47;;;;;;;11.82;6.72;;;12.90;99.90;;;;;;4958637;28;89994;-36
2022/04/28 11:25:15;;;;;;;11.35;6.90;;;12.80;99.90;;;;;;4958082;28;90522;-32
2022/04/28 11:27:41;;;;;;;8.77;6.20;;;12.80;99.90;;;;;;4958107;28;91774;-32
2022/04/28 11:30:11;;;;;;;8.93;6.00;;;12.70;99.90;;;;;;4958566;28;89046;-35
2022/04/28 11:32:45;;;;;;;7.45;6.50;;;12.70;99.90;;;;;;4957969;28;93524;-35
2022/04/28 11:35:11;;;;;;;16.23;6.90;;;12.70;99.90;;;;;;4957909;28;89710;-35
2022/04/28 11:37:38;;;;;;;10.40;6.65;;;12.90;99.90;;;;;;4957501;28;89794;-37
2022/04/28 11:40:06;;;;;;;13.18;7.45;;;12.70;99.90;;;;;;4958995;28;89306;-33
2022/04/28 11:42:33;;;;;;;10.87;6.60;;;13.00;99.90;;;;;;4958321;28;90337;-32
2022/04/28 11:45:00;;;;;;;9.80;6.18;;;12.90;99.90;;;;;;4957529;28;90356;-33
2022/04/28 11:47:27;;;;;;;14.40;7.40;;;13.10;99.90;;;;;;4957891;28;89828;-33
2022/04/28 11:50:03;;;;;;;9.73;6.60;;;12.80;99.90;;;;;;4957118;28;90332;-33
2022/04/28 11:52:31;;;;;;;12.85;7.03;;;13.10;99.90;;;;;;4958279;28;90229;-34
2022/04/28 11:55:06;;;;;;;9.75;7.43;;;13.30;99.90;;;;;;4957558;28;89634;-33
2022/04/28 11:57:33;;;;;;;10.25;6.90;;;13.50;99.90;;;;;;4957349;28;90012;-33
2022/04/28 11:59:59;;;;;;;16.73;7.25;;;13.30;99.90;;;;;;4958624;28;88733;-35
2022/04/28 12:02:28;;;;;;;10.50;8.18;;;13.20;99.90;;;;;;4958395;28;91453;-36
2022/04/28 12:04:55;;;;;;;16.75;7.20;;;13.00;99.90;;;;;;4957921;28;91333;-33
2022/04/28 12:07:22;;;;;;;10.73;7.18;;;13.10;99.90;;;;;;4958111;28;89382;-34
2022/04/28 12:15:22;;;;;;;15.52;7.45;;;13.20;99.90;;;;;;4956748;28;91055;-32
2022/04/28 12:20:58;;;;;;;13.77;7.47;;;13.20;99.90;;;;;;4957437;28;88048;-32
2022/04/28 12:23:43;;;;;;;9.73;7.00;;;13.40;99.90;;;;;;4957310;28;90278;-34
2022/04/28 12:26:10;;;;;;;7.18;6.45;;;13.50;99.90;;;;;;4957084;28;90597;-35
2022/04/28 12:28:42;;;;;;;14.30;7.25;;;13.60;99.90;;;;;;4956809;28;89244;-37
2022/04/28 12:31:09;;;;;;;7.47;6.80;;;13.70;99.90;;;;;;4957746;28;88838;-38
2022/04/28 12:33:37;;;;;;;13.82;8.20;;;13.50;99.90;;;;;;4957788;28;89908;-34
2022/04/28 12:36:13;;;;;;;12.30;7.77;;;13.70;99.90;;;;;;5001269;22;91678;-34
2022/04/28 12:38:46;;;;;;;18.00;8.45;;;13.50;99.90;;;;;;4976680;28;89187;-33
2022/04/28 12:41:15;;;;;;;16.30;7.32;;;13.50;99.90;;;;;;4976546;28;88793;-36
2022/04/28 12:43:48;;;;;;;;;;;13.30;99.90;;;;;;4976769;28;90431;-34
2022/04/28 12:46:19;;;;;;;9.85;7.43;;;13.80;99.90;;;;;;4978117;28;90297;-34
2022/04/28 12:48:54;;;;;;;14.02;8.60;;;13.80;99.90;;;;;;4976411;28;89315;-38
2022/04/28 12:51:24;;;;;;;8.20;7.22;;;13.50;99.90;;;;;;4975823;28;88261;-37
2022/04/28 12:53:55;;;;;;;12.75;7.15;;;13.60;99.90;;;;;;4976793;28;90361;-33
2022/04/28 12:56:28;;;;;;;13.23;7.13;;;13.60;99.90;;;;;;4976557;28;90429;-34
2022/04/28 12:59:03;;;;;;;16.60;7.13;;;13.30;99.90;;;;;;4976694;28;90027;-33
2022/04/28 13:01:30;;;;;;;11.95;6.90;;;13.30;99.90;;;;;;4977239;28;89267;-33
2022/04/28 13:04:17;;;;;;;9.02;6.85;;;13.20;99.90;;;;;;4976282;28;90261;-36
2022/04/28 13:06:44;;;;;;;17.70;8.40;;;13.40;99.90;;;;;;4976176;28;90746;-35
2022/04/28 13:09:10;;;;;;;13.48;7.47;;;13.50;99.90;;;;;;4976660;28;90288;-37
2022/04/28 13:11:39;;;;;;;8.30;6.10;;;13.40;99.90;;;;;;4976927;28;89174;-34
2022/04/28 13:14:12;;;;;;;12.98;6.80;;;13.90;99.90;;;;;;4976701;28;91507;-34
2022/04/28 13:16:39;;;;;;;10.85;6.97;;;13.20;99.90;;;;;;4976662;28;89812;-34
2022/04/28 13:19:06;;;;;;;11.05;8.15;;;13.60;99.90;;;;;;4977070;28;89704;-33
2022/04/28 13:21:32;;;;;;;12.68;7.07;;;13.40;99.90;;;;;;4976107;28;89134;-34